Home   Weather   Dufftown   Past weeks
Flag for United Kingdom

Past Weather in Dufftown, Scotland, United Kingdom — Yesterday and Last 2 Weeks

Currently: 48 °F. Sunny. (Weather station: Inverness / Dalcross, United Kingdom). See more current weather

Past Weather in Dufftown — Graph

°F

Dufftown Temperature Yesterday

Maximum temperature yesterday: 46 °F (at 11:20 am)
Minimum temperature yesterday: 32 °F (at 12:20 am)
Average temperature yesterday: 40 °F

High & Low Weather Summary for the Past Weeks

 TemperatureHumidityPressure
High54 °F (Feb 20, 11:20 am)100% (Feb 24, 1:50 am)30.15 "Hg (Feb 24, 1:50 am)
Low23 °F (Feb 25, 6:50 am)47% (Mar 4, 1:20 pm)28.71 "Hg (Feb 23, 12:50 am)
Average41 °F81%29.49 "Hg
* Reported Feb 18 2:20 pm — Mar 4 2:50 pm, Dufftown. Weather by CustomWeather, © 2024

Note: Actual official high and low records may vary slightly from our data, if they occured in-between our weather recording intervals... More about our weather records

Dufftown Weather History for the Previous 24 Hours

Scroll right to see more
 ConditionsComfort  
Time TempWeatherWind HumidityBarometerVisibility
2:50 pm
Mon, Mar 4
50 °FSunny.7 mph47%29.71 "Hg10 mi
2:20 pm50 °FPassing clouds.3 mph47%29.71 "HgN/A
1:50 pm50 °FPassing clouds.7 mph47%29.74 "HgN/A
1:20 pm50 °FSunny.9 mph47%29.74 "Hg10 mi
12:50 pm48 °FPassing clouds.8 mph54%29.74 "HgN/A
11:50 am46 °FPassing clouds.3 mph66%29.74 "HgN/A
11:20 am45 °FSunny.5 mph71%29.74 "Hg10 mi
10:50 am41 °FSunny.2 mph87%29.77 "Hg10 mi
10:20 am39 °FSunny.1 mph87%29.77 "Hg10 mi
9:50 am39 °FPassing clouds.3 mph81%29.77 "HgN/A
9:20 am37 °FSunny.No wind87%29.77 "Hg10 mi
8:50 am32 °FSunny.No wind100%29.77 "Hg10 mi
8:20 am28 °FSunny.No wind93%29.77 "Hg10 mi
7:50 am28 °FSunny.No wind93%29.77 "Hg10 mi
7:20 am25 °FSunny.No wind93%29.74 "Hg10 mi
6:50 am27 °FClear.No wind93%29.74 "Hg10 mi
6:20 am25 °FPassing clouds.No wind100%29.74 "HgN/A
5:50 am27 °FChilly.1 mph93%29.74 "HgN/A
4:50 am28 °FChilly.1 mph93%29.71 "HgN/A
4:20 am27 °FChilly.3 mph93%29.71 "HgN/A
3:50 am25 °FCold.1 mph93%29.71 "HgN/A
3:20 am28 °FChilly.2 mph93%29.71 "HgN/A
2:20 am28 °FChilly.No wind93%29.71 "HgN/A
1:50 am30 °FChilly.1 mph93%29.68 "HgN/A
1:20 am34 °FChilly.No wind87%29.68 "HgN/A
12:50 am34 °FChilly.6 mph81%29.68 "HgN/A
12:20 am36 °FChilly.5 mph75%29.68 "HgN/A
11:50 pm
Sun, Mar 3
32 °FChilly.5 mph87%29.68 "HgN/A
11:20 pm32 °FChilly.2 mph87%29.68 "HgN/A
10:50 pm37 °FChilly.2 mph75%29.68 "HgN/A
10:20 pm39 °FChilly.5 mph70%29.65 "HgN/A
9:50 pm37 °FChilly.No wind75%29.65 "HgN/A
9:20 pm37 °FPassing clouds.1 mph75%29.65 "HgN/A
8:50 pm39 °FPassing clouds.1 mph70%29.65 "HgN/A
7:50 pm41 °FPassing clouds.3 mph66%29.62 "HgN/A
7:20 pm41 °FPassing clouds.1 mph70%29.62 "HgN/A
6:20 pm39 °FPassing clouds.2 mph75%29.62 "HgN/A
5:50 pm39 °FPassing clouds.6 mph75%29.59 "HgN/A
5:20 pm41 °FPassing clouds.6 mph70%29.59 "HgN/A
4:50 pm45 °FPassing clouds.5 mph61%29.59 "HgN/A
4:20 pm45 °FPassing clouds.10 mph61%29.59 "HgN/A
Weather by CustomWeather, © 2024

See weather overview